Terminal Aerodrome Forecast
Issued by NWS

Home | Current Version | Previous Version | Text Only | Print | Product List | Glossary On
Versions: 1 2 3 4 5 6 7 8 9 10 11 12 13 14 15 16 17 18 19 20 21 22 23
000
FTUS44 KLZK 270500
TAFADF
TAF
KADF 270534Z 2706/2806 02004KT P6SM SCT100
     FM271400 06007KT P6SM BKN100
     FM280000 09005KT P6SM OVC060 PROB30 2802/2806 5SM -SN=

USA.gov is the U.S. government's official web portal to all federal, state and local government web resources and services.